Time;durP1;ratioP1;P1;durP2;ratioP2;P2;SDS_P1;SDS_P2;PMS_P1;PMS_P2;Temp;Humidity;BMP_temperature;BMP_pressure;BME280_temperature;BME280_humidity;BME280_pressure;Samples;Min_cycle;Max_cycle;Signal;HPM_P1;HPM_P2
2023/05/04 00:00:38;;;;;;;14.83;13.63;;;8.40;99.90;;;;;;4993354;28;20283;-76
2023/05/04 00:03:05;;;;;;;14.50;13.30;;;8.40;99.90;;;;;;4993751;28;20224;-76
2023/05/04 00:05:32;;;;;;;15.17;13.87;;;8.40;99.90;;;;;;4975899;28;20325;-76
2023/05/04 00:08:00;;;;;;;16.03;14.63;;;8.40;99.90;;;;;;4976428;28;20224;-76
2023/05/04 00:10:27;;;;;;;14.80;13.50;;;8.30;99.90;;;;;;4996687;28;20248;-76
2023/05/04 00:12:54;;;;;;;14.47;13.27;;;8.30;99.90;;;;;;4985806;28;20303;-76
2023/05/04 00:15:21;;;;;;;16.33;14.90;;;8.20;99.90;;;;;;4993761;28;20232;-75
2023/05/04 00:17:48;;;;;;;14.87;13.63;;;8.20;99.90;;;;;;4993969;28;20209;-76
2023/05/04 00:20:15;;;;;;;14.77;13.57;;;8.10;99.90;;;;;;4977294;28;20248;-76
2023/05/04 00:22:42;;;;;;;15.87;14.37;;;8.10;99.90;;;;;;4985755;28;20287;-77
2023/05/04 00:25:10;;;;;;;16.37;14.93;;;8.20;99.90;;;;;;4977867;28;20205;-76
2023/05/04 00:27:37;;;;;;;16.23;14.90;;;8.10;99.90;;;;;;4993394;28;20206;-76
2023/05/04 00:30:05;;;;;;;17.70;15.97;;;8.20;99.90;;;;;;4975987;28;20693;-76
2023/05/04 00:32:32;;;;;;;15.93;14.53;;;8.30;99.90;;;;;;4975843;28;20201;-76
2023/05/04 00:35:03;;;;;;;15.73;14.33;;;8.30;99.90;;;;;;4976571;28;20212;-77
2023/05/04 00:37:30;;;;;;;15.77;14.27;;;8.30;99.90;;;;;;4979672;28;20205;-76
2023/05/04 00:39:57;;;;;;;15.37;14.03;;;8.40;99.90;;;;;;4976797;28;20194;-76
2023/05/04 00:42:25;;;;;;;15.13;13.73;;;8.50;99.90;;;;;;4978689;28;20846;-76
2023/05/04 00:44:54;;;;;;;15.93;14.50;;;8.40;99.90;;;;;;4976128;28;20205;-77
2023/05/04 00:47:21;;;;;;;14.80;13.50;;;8.40;99.90;;;;;;4976272;28;20255;-76
2023/05/04 00:49:48;;;;;;;15.23;14.00;;;8.40;99.90;;;;;;4993859;28;20212;-76
2023/05/04 00:52:16;;;;;;;14.50;13.20;;;8.30;99.90;;;;;;4999899;28;20197;-76
2023/05/04 00:54:44;;;;;;;14.93;13.67;;;8.30;99.90;;;;;;4979712;28;20252;-75
2023/05/04 00:57:11;;;;;;;15.20;13.80;;;8.30;99.90;;;;;;4979221;28;20225;-76
2023/05/04 00:59:40;;;;;;;16.50;14.83;;;8.30;99.90;;;;;;4979339;28;20205;-77
2023/05/04 01:02:06;;;;;;;15.30;14.00;;;8.30;99.90;;;;;;4972687;28;20267;-76
2023/05/04 01:04:41;;;;;;;15.43;14.13;;;8.30;99.90;;;;;;4989006;28;20225;-76
2023/05/04 01:07:15;;;;;;;16.10;14.70;;;8.20;99.90;;;;;;4981631;28;20612;-76
2023/05/04 01:09:49;;;;;;;15.33;13.93;;;8.20;99.90;;;;;;4979601;28;20204;-76
2023/05/04 01:12:21;;;;;;;15.47;14.17;;;8.10;99.90;;;;;;5000640;28;20201;-76
2023/05/04 01:14:52;;;;;;;14.97;13.63;;;8.10;99.90;;;;;;5000026;28;20193;-76
2023/05/04 01:17:19;;;;;;;15.60;14.00;;;8.10;99.90;;;;;;4979696;28;20548;-76
2023/05/04 01:19:46;;;;;;;14.87;13.73;;;8.10;99.90;;;;;;4997306;28;20201;-75
2023/05/04 01:22:15;;;;;;;15.63;14.30;;;8.00;99.90;;;;;;4989986;28;20205;-76
2023/05/04 01:24:41;;;;;;;15.67;14.40;;;8.00;99.90;;;;;;4987024;28;20273;-76
2023/05/04 01:27:13;;;;;;;15.80;14.50;;;8.10;99.90;;;;;;4991205;28;20231;-76
2023/05/04 01:29:48;;;;;;;16.50;15.00;;;8.10;99.90;;;;;;4981084;28;20584;-76
2023/05/04 01:32:17;;;;;;;16.00;14.60;;;8.10;99.90;;;;;;4980130;28;20197;-76
2023/05/04 01:34:44;;;;;;;15.37;14.10;;;8.00;99.90;;;;;;4996918;28;20618;-76
2023/05/04 01:37:11;;;;;;;14.77;13.40;;;8.00;99.90;;;;;;4979748;28;20296;-75
2023/05/04 01:39:39;;;;;;;15.07;13.73;;;8.00;99.90;;;;;;4979348;28;20243;-77
2023/05/04 01:42:07;;;;;;;14.80;13.57;;;8.00;99.90;;;;;;4982387;28;20228;-77
2023/05/04 01:44:35;;;;;;;14.60;13.47;;;7.90;99.90;;;;;;4979026;28;20229;-76
2023/05/04 01:47:01;;;;;;;16.13;14.73;;;7.90;99.90;;;;;;4979203;28;20201;-77
2023/05/04 01:49:28;;;;;;;15.47;14.17;;;7.90;99.90;;;;;;4990987;28;20211;-76
2023/05/04 01:51:55;;;;;;;15.83;14.43;;;7.90;99.90;;;;;;4982515;28;20725;-76
2023/05/04 01:54:24;;;;;;;17.07;15.47;;;7.90;99.90;;;;;;4978568;28;20193;-76
2023/05/04 01:56:53;;;;;;;15.37;13.97;;;7.80;99.90;;;;;;4978990;28;20205;-77
2023/05/04 01:59:19;;;;;;;14.53;13.37;;;7.80;99.90;;;;;;4978919;28;20251;-76
2023/05/04 02:01:46;;;;;;;14.83;13.63;;;7.70;99.90;;;;;;4996060;28;20223;-77
2023/05/04 02:04:13;;;;;;;12.57;11.23;;;7.60;99.90;;;;;;4978436;28;20708;-77
2023/05/04 02:06:40;;;;;;;9.70;8.40;;;7.60;99.90;;;;;;4987742;28;20284;-77
2023/05/04 02:09:07;;;;;;;11.63;9.10;;;7.60;99.90;;;;;;4996998;28;20251;-76
2023/05/04 02:11:34;;;;;;;12.27;11.00;;;7.50;99.90;;;;;;4982299;28;20247;-75
2023/05/04 02:14:03;;;;;;;14.20;9.00;;;7.50;99.90;;;;;;4976645;28;20201;-76
2023/05/04 02:16:30;;;;;;;10.87;9.77;;;7.50;99.90;;;;;;4994898;28;20208;-76
2023/05/04 02:18:57;;;;;;;15.13;13.73;;;7.50;99.90;;;;;;4978346;28;20197;-75
2023/05/04 02:21:23;;;;;;;14.33;13.13;;;7.40;99.90;;;;;;4999681;28;20219;-75
2023/05/04 02:23:50;;;;;;;15.20;13.73;;;7.40;99.90;;;;;;4996023;28;20209;-76
2023/05/04 02:26:17;;;;;;;14.57;13.27;;;7.40;99.90;;;;;;4978585;28;20732;-77
2023/05/04 02:28:44;;;;;;;14.37;12.97;;;7.50;99.90;;;;;;4978546;28;20201;-76
2023/05/04 02:31:12;;;;;;;15.87;14.43;;;7.40;99.90;;;;;;4978841;28;20228;-77
2023/05/04 02:33:39;;;;;;;15.67;14.27;;;7.50;99.90;;;;;;4985105;28;20205;-78
2023/05/04 02:36:06;;;;;;;15.90;14.47;;;7.50;99.90;;;;;;4981023;28;20228;-77
2023/05/04 02:38:33;;;;;;;14.40;13.10;;;7.40;99.90;;;;;;4996706;28;20291;-77
2023/05/04 02:41:00;;;;;;;15.13;13.63;;;7.40;99.90;;;;;;4983426;28;20224;-78
2023/05/04 02:43:27;;;;;;;15.60;14.10;;;7.40;99.90;;;;;;4981570;28;20904;-76
2023/05/04 02:45:53;;;;;;;14.87;13.57;;;7.40;99.90;;;;;;4977105;28;20232;-76
2023/05/04 02:48:22;;;;;;;14.97;13.67;;;7.30;99.90;;;;;;4976734;28;20665;-77
2023/05/04 02:50:48;;;;;;;14.47;13.27;;;7.30;99.90;;;;;;4981699;28;20227;-77
2023/05/04 02:53:15;;;;;;;16.30;14.73;;;7.30;99.90;;;;;;4974292;28;20210;-78
2023/05/04 02:55:42;;;;;;;16.03;14.50;;;7.30;99.90;;;;;;4996893;28;20197;-78
2023/05/04 02:58:09;;;;;;;15.60;14.13;;;7.30;99.90;;;;;;4973907;28;20759;-79
2023/05/04 03:00:36;;;;;;;15.93;14.63;;;7.30;99.90;;;;;;4979626;28;20674;-82
2023/05/04 03:03:02;;;;;;;15.50;14.10;;;7.30;99.90;;;;;;4995422;28;20290;-81
2023/05/04 03:05:31;;;;;;;17.07;15.47;;;7.20;99.90;;;;;;4978238;28;20233;-82
2023/05/04 03:07:58;;;;;;;15.90;14.50;;;7.20;99.90;;;;;;4993638;28;21198;-82
2023/05/04 03:10:25;;;;;;;17.63;15.87;;;7.20;99.90;;;;;;4980766;28;20240;-82
2023/05/04 03:12:51;;;;;;;16.63;15.13;;;7.10;99.90;;;;;;4979379;28;20223;-81
2023/05/04 03:15:19;;;;;;;17.17;15.53;;;7.10;99.90;;;;;;4978690;28;20204;-82
2023/05/04 03:17:46;;;;;;;17.83;16.23;;;7.20;99.90;;;;;;4978338;28;20233;-84
2023/05/04 03:20:13;;;;;;;17.70;16.10;;;7.10;99.90;;;;;;4978210;28;20704;-81
2023/05/04 03:22:43;;;;;;;17.77;16.27;;;7.10;99.90;;;;;;4972883;28;20206;-80
2023/05/04 03:25:10;;;;;;;17.93;16.33;;;7.10;99.90;;;;;;4978682;28;20602;-80
2023/05/04 03:27:37;;;;;;;16.77;15.37;;;7.10;99.90;;;;;;4977680;28;20203;-79
2023/05/04 03:30:05;;;;;;;18.13;16.53;;;7.10;99.90;;;;;;4977120;28;20201;-78
2023/05/04 03:32:33;;;;;;;17.27;15.77;;;7.10;99.90;;;;;;4977116;28;20212;-79
2023/05/04 03:35:00;;;;;;;16.47;14.87;;;7.10;99.90;;;;;;4977436;28;20201;-81
2023/05/04 03:37:28;;;;;;;16.93;15.43;;;7.10;99.90;;;;;;4976941;28;20210;-81
2023/05/04 03:39:56;;;;;;;17.47;15.50;;;7.10;99.90;;;;;;4994945;28;20207;-79
2023/05/04 03:42:23;;;;;;;15.77;14.37;;;7.00;99.90;;;;;;4977681;28;20786;-78
2023/05/04 03:44:50;;;;;;;19.23;17.43;;;7.00;99.90;;;;;;4995241;28;20267;-81
2023/05/04 03:47:17;;;;;;;18.27;16.67;;;7.00;99.90;;;;;;4978044;28;20204;-82
2023/05/04 03:49:43;;;;;;;18.43;16.63;;;7.00;99.90;;;;;;4983847;28;20204;-80
2023/05/04 03:52:10;;;;;;;18.13;16.53;;;7.00;99.90;;;;;;4977608;28;20290;-79
2023/05/04 03:54:38;;;;;;;17.67;16.17;;;7.00;99.90;;;;;;4984253;28;20303;-79
2023/05/04 03:57:06;;;;;;;20.37;18.47;;;7.00;99.90;;;;;;4997318;28;20196;-77
2023/05/04 03:59:35;;;;;;;19.07;17.37;;;7.00;99.90;;;;;;4989392;28;20234;-78
2023/05/04 04:02:04;;;;;;;19.83;18.13;;;6.90;99.90;;;;;;4992945;28;20220;-78
2023/05/04 04:04:31;;;;;;;19.57;17.87;;;6.90;99.90;;;;;;4991819;28;20220;-78
2023/05/04 04:06:58;;;;;;;18.50;16.90;;;6.90;99.90;;;;;;4993848;28;20234;-82
2023/05/04 04:09:26;;;;;;;20.00;18.27;;;6.90;99.90;;;;;;4994631;28;20200;-78
2023/05/04 04:11:52;;;;;;;19.50;17.80;;;6.90;99.90;;;;;;5002089;28;20220;-78
2023/05/04 04:14:20;;;;;;;19.93;18.07;;;6.90;99.90;;;;;;4987087;28;20259;-78
2023/05/04 04:16:47;;;;;;;19.70;17.97;;;7.00;99.90;;;;;;5001274;28;20201;-78
2023/05/04 04:19:14;;;;;;;21.23;19.23;;;7.00;99.90;;;;;;5000165;28;20197;-77
2023/05/04 04:21:41;;;;;;;19.73;17.77;;;7.00;99.90;;;;;;5002605;28;20584;-78
2023/05/04 04:24:08;;;;;;;21.43;19.53;;;7.00;99.90;;;;;;5002628;28;20205;-78
2023/05/04 04:26:35;;;;;;;20.30;18.40;;;7.10;99.90;;;;;;4997238;28;20204;-77
2023/05/04 04:29:02;;;;;;;19.93;18.23;;;7.10;99.90;;;;;;5006877;28;20193;-78
2023/05/04 04:31:30;;;;;;;20.73;19.00;;;7.10;99.90;;;;;;5005968;28;20220;-77
2023/05/04 04:33:58;;;;;;;19.93;18.10;;;7.30;99.90;;;;;;5006134;28;20192;-79
2023/05/04 04:36:25;;;;;;;18.50;16.90;;;7.30;99.90;;;;;;4996918;28;20204;-77
2023/05/04 04:38:52;;;;;;;18.90;17.17;;;7.30;99.90;;;;;;5006424;28;20201;-78
2023/05/04 04:41:19;;;;;;;19.10;17.50;;;7.50;99.90;;;;;;5003668;28;20217;-78
2023/05/04 04:43:46;;;;;;;19.67;17.77;;;7.60;99.90;;;;;;5006042;28;20231;-77
2023/05/04 04:46:14;;;;;;;19.27;17.53;;;7.70;99.90;;;;;;4996402;28;20205;-78
2023/05/04 04:48:42;;;;;;;17.90;16.30;;;7.80;99.90;;;;;;4989626;28;20212;-79
2023/05/04 04:51:11;;;;;;;19.47;17.87;;;8.00;99.90;;;;;;5005888;28;20235;-78
2023/05/04 04:53:37;;;;;;;18.60;16.90;;;8.10;99.90;;;;;;4991380;28;20197;-78
2023/05/04 04:56:06;;;;;;;18.87;17.10;;;8.20;99.90;;;;;;4990294;28;20201;-78
2023/05/04 04:58:33;;;;;;;19.07;17.40;;;8.20;99.90;;;;;;5007120;28;20197;-78
2023/05/04 05:01:01;;;;;;;19.80;18.20;;;8.30;99.90;;;;;;4996201;28;20221;-79
2023/05/04 05:03:28;;;;;;;20.13;18.53;;;8.40;99.90;;;;;;5005435;28;20197;-77
2023/05/04 05:05:56;;;;;;;18.43;16.83;;;8.40;99.90;;;;;;5006177;28;20241;-78
2023/05/04 05:08:23;;;;;;;18.53;16.93;;;8.60;99.90;;;;;;5006718;28;20233;-80
2023/05/04 05:10:51;;;;;;;15.10;12.47;;;9.00;99.90;;;;;;5005892;28;20248;-79
2023/05/04 05:13:17;;;;;;;16.90;15.30;;;9.30;99.90;;;;;;4996468;28;20284;-79
2023/05/04 05:15:44;;;;;;;15.67;14.17;;;9.80;99.90;;;;;;4987926;28;20259;-77
2023/05/04 05:18:11;;;;;;;16.20;14.77;;;10.10;99.90;;;;;;4986797;28;20288;-78
2023/05/04 05:20:38;;;;;;;16.93;15.43;;;10.50;99.90;;;;;;4994414;28;20253;-78
2023/05/04 05:23:06;;;;;;;16.33;14.83;;;10.80;99.90;;;;;;4991754;28;20236;-77
2023/05/04 05:25:33;;;;;;;14.80;13.30;;;11.20;99.90;;;;;;4997853;28;20284;-78
2023/05/04 05:27:59;;;;;;;15.47;14.07;;;11.50;99.90;;;;;;4991284;28;20199;-80
2023/05/04 05:30:27;;;;;;;16.97;15.47;;;11.80;99.90;;;;;;4993491;28;20235;-78
2023/05/04 05:32:54;;;;;;;12.67;11.47;;;12.00;99.90;;;;;;4992157;28;21094;-78
2023/05/04 05:35:20;;;;;;;13.83;12.27;;;12.40;99.90;;;;;;4982926;28;20246;-79
2023/05/04 05:37:48;;;;;;;12.50;11.03;;;12.80;99.90;;;;;;4983522;28;20239;-79
2023/05/04 05:40:16;;;;;;;10.73;9.43;;;13.20;99.90;;;;;;4996570;28;20232;-76
2023/05/04 05:42:43;;;;;;;12.27;9.87;;;13.50;99.90;;;;;;4991352;28;20189;-78
2023/05/04 05:45:11;;;;;;;11.87;9.27;;;13.90;99.90;;;;;;4988720;28;20209;-77
2023/05/04 05:47:38;;;;;;;12.33;10.20;;;14.10;99.90;;;;;;4998436;28;20260;-78
2023/05/04 05:50:07;;;;;;;10.67;9.57;;;14.20;99.90;;;;;;4998580;28;20252;-78
2023/05/04 05:52:34;;;;;;;11.87;10.67;;;13.90;99.90;;;;;;4998735;28;20312;-77
2023/05/04 05:55:00;;;;;;;11.90;10.50;;;13.60;99.90;;;;;;4989020;28;20205;-78
2023/05/04 05:57:29;;;;;;;11.33;10.13;;;13.50;99.90;;;;;;5001643;28;20197;-78
2023/05/04 05:59:56;;;;;;;13.07;11.00;;;13.40;99.90;;;;;;5003341;28;20237;-79
2023/05/04 06:02:23;;;;;;;12.80;10.20;;;13.20;99.90;;;;;;5002834;28;20225;-79
2023/05/04 06:04:50;;;;;;;11.83;10.63;;;13.10;99.90;;;;;;4989843;28;20213;-77
2023/05/04 06:07:18;;;;;;;12.93;11.57;;;12.80;99.90;;;;;;4996668;28;20194;-76
2023/05/04 06:09:45;;;;;;;12.20;11.00;;;12.60;99.90;;;;;;4996399;28;20203;-77
2023/05/04 06:12:13;;;;;;;11.93;10.77;;;12.50;99.90;;;;;;4999269;28;20217;-78
2023/05/04 06:14:42;;;;;;;10.83;9.63;;;12.40;99.90;;;;;;4981413;28;20201;-78
2023/05/04 06:17:09;;;;;;;11.10;10.10;;;12.40;99.90;;;;;;4996924;28;20202;-77
2023/05/04 06:19:36;;;;;;;12.57;11.37;;;12.60;99.90;;;;;;4995607;28;20208;-77
2023/05/04 06:22:04;;;;;;;11.70;10.50;;;12.70;99.90;;;;;;4997810;28;20218;-77
2023/05/04 06:24:31;;;;;;;11.77;10.67;;;12.90;99.90;;;;;;4996333;28;20714;-77
2023/05/04 06:26:58;;;;;;;12.90;11.70;;;12.80;99.90;;;;;;4998940;28;20193;-77
2023/05/04 06:29:25;;;;;;;11.27;10.17;;;12.90;99.90;;;;;;4981372;28;20733;-78
2023/05/04 06:31:53;;;;;;;12.97;10.93;;;13.00;99.90;;;;;;4980642;28;20252;-77
2023/05/04 06:34:20;;;;;;;12.70;11.57;;;13.00;99.90;;;;;;4997817;28;20193;-80
2023/05/04 06:36:47;;;;;;;10.37;9.43;;;13.20;99.90;;;;;;4993845;28;20667;-80
2023/05/04 06:39:14;;;;;;;10.83;9.37;;;13.50;99.90;;;;;;4979391;28;20212;-79
2023/05/04 06:41:41;;;;;;;12.80;9.60;;;13.80;99.90;;;;;;4985026;28;20315;-81
2023/05/04 06:44:08;;;;;;;12.37;11.07;;;13.90;99.90;;;;;;4994348;28;20639;-79
2023/05/04 06:46:35;;;;;;;12.00;10.33;;;14.00;99.90;;;;;;4976251;28;20733;-79
2023/05/04 06:49:04;;;;;;;12.60;10.23;;;14.20;99.90;;;;;;4993838;28;20219;-79
2023/05/04 06:51:31;;;;;;;11.13;10.00;;;14.40;99.90;;;;;;4993867;28;20716;-78
2023/05/04 06:53:59;;;;;;;10.83;9.73;;;14.50;99.90;;;;;;4981344;28;20208;-79
2023/05/04 06:56:25;;;;;;;10.00;8.93;;;14.80;99.90;;;;;;4985213;28;20291;-79
2023/05/04 06:58:52;;;;;;;10.03;7.80;;;15.40;99.90;;;;;;4979184;28;20716;-79
2023/05/04 07:01:19;;;;;;;10.33;8.73;;;15.90;99.90;;;;;;4975907;28;20239;-79
2023/05/04 07:03:46;;;;;;;10.83;8.83;;;16.30;99.90;;;;;;4981991;28;20248;-80
2023/05/04 07:06:15;;;;;;;8.67;7.47;;;16.50;99.90;;;;;;4976340;28;20221;-79
2023/05/04 07:08:42;;;;;;;8.70;7.87;;;16.60;99.90;;;;;;4979341;28;20197;-80
2023/05/04 07:11:09;;;;;;;9.80;8.80;;;16.90;99.90;;;;;;4992993;28;20228;-78
2023/05/04 07:13:36;;;;;;;11.07;9.53;;;17.10;99.90;;;;;;4975246;28;20204;-79
2023/05/04 07:16:06;;;;;;;8.83;7.60;;;17.30;99.90;;;;;;4976203;28;20679;-79
2023/05/04 07:18:33;;;;;;;11.23;10.03;;;17.70;99.90;;;;;;4993183;28;20202;-79
2023/05/04 07:21:00;;;;;;;10.20;9.10;;;17.90;99.90;;;;;;4976296;28;20223;-79
2023/05/04 07:23:28;;;;;;;9.43;8.53;;;18.10;99.90;;;;;;4995857;28;20195;-79
2023/05/04 07:26:08;;;;;;;8.27;7.47;;;18.20;99.90;;;;;;4979635;28;20286;-79
2023/05/04 07:28:35;;;;;;;12.63;9.53;;;18.60;99.90;;;;;;4994300;28;20739;-80
2023/05/04 07:31:02;;;;;;;9.47;8.57;;;18.70;99.90;;;;;;4994142;28;20263;-80
2023/05/04 07:33:29;;;;;;;9.90;9.00;;;19.10;99.90;;;;;;4995569;28;20193;-79
2023/05/04 07:35:59;;;;;;;9.33;8.37;;;19.40;99.90;;;;;;4993980;28;20205;-79
2023/05/04 07:38:28;;;;;;;8.73;7.60;;;19.70;99.90;;;;;;4986955;28;20193;-78
2023/05/04 07:40:55;;;;;;;9.80;8.80;;;20.00;99.90;;;;;;4994432;28;20568;-80
2023/05/04 07:43:22;;;;;;;10.43;9.33;;;20.10;99.90;;;;;;4993760;28;20205;-80
2023/05/04 07:45:49;;;;;;;9.53;8.63;;;19.90;99.90;;;;;;4993157;28;20201;-79
2023/05/04 07:48:16;;;;;;;10.33;9.23;;;19.70;99.90;;;;;;4975229;28;20661;-78
2023/05/04 07:50:43;;;;;;;9.90;8.87;;;19.90;99.90;;;;;;4992538;28;20599;-78
2023/05/04 07:53:10;;;;;;;8.80;7.70;;;20.20;99.90;;;;;;4976555;28;20696;-80
2023/05/04 07:55:38;;;;;;;9.57;8.57;;;20.70;99.90;;;;;;4983579;28;20573;-78
2023/05/04 07:58:05;;;;;;;9.80;8.83;;;20.70;99.90;;;;;;4987129;28;20209;-80
2023/05/04 08:00:32;;;;;;;12.33;11.07;;;21.10;99.90;;;;;;4978852;28;20303;-81
2023/05/04 08:02:59;;;;;;;11.33;10.30;;;20.90;99.90;;;;;;4978436;28;20283;-77
2023/05/04 08:05:26;;;;;;;10.60;9.60;;;21.20;99.90;;;;;;4967614;28;20200;-77
2023/05/04 08:07:52;;;;;;;10.00;9.10;;;21.30;99.90;;;;;;4992768;28;20197;-77
2023/05/04 08:10:19;;;;;;;8.30;7.50;;;21.70;99.90;;;;;;4992405;28;20217;-78
2023/05/04 08:12:47;;;;;;;10.70;9.63;;;21.80;99.90;;;;;;4975083;28;20240;-77
2023/05/04 08:15:15;;;;;;;9.27;8.37;;;21.60;99.90;;;;;;4974965;28;20748;-77
2023/05/04 08:17:41;;;;;;;11.23;9.73;;;21.90;99.90;;;;;;4975308;28;20215;-78
2023/05/04 08:20:09;;;;;;;10.00;9.10;;;21.90;99.90;;;;;;4992255;28;20593;-77
2023/05/04 08:22:37;;;;;;;8.33;7.53;;;21.60;99.90;;;;;;4974987;28;20225;-77
2023/05/04 08:25:04;;;;;;;7.80;7.10;;;21.90;99.90;;;;;;4994579;28;20258;-77
2023/05/04 08:27:31;;;;;;;8.60;7.77;;;22.00;99.90;;;;;;4974654;28;20212;-77
2023/05/04 08:29:59;;;;;;;9.47;8.57;;;22.00;99.90;;;;;;4974316;28;20205;-77
2023/05/04 08:32:26;;;;;;;8.47;7.67;;;22.10;99.90;;;;;;4992365;28;20212;-77
2023/05/04 08:34:53;;;;;;;10.37;7.93;;;22.20;99.90;;;;;;4976944;28;20209;-78
2023/05/04 08:37:20;;;;;;;9.40;8.50;;;22.00;99.90;;;;;;4993208;28;20206;-78
2023/05/04 08:39:47;;;;;;;9.27;8.37;;;22.10;99.90;;;;;;4987404;28;20203;-77
2023/05/04 08:42:14;;;;;;;10.83;9.83;;;22.10;99.90;;;;;;4992979;28;20205;-78
2023/05/04 08:44:40;;;;;;;10.30;9.30;;;22.10;99.90;;;;;;4975280;28;20293;-78
2023/05/04 08:47:09;;;;;;;9.03;8.23;;;22.40;99.90;;;;;;4974831;28;20693;-78
2023/05/04 08:49:35;;;;;;;7.80;7.00;;;22.50;99.90;;;;;;4974354;28;20205;-77
2023/05/04 08:52:07;;;;;;;9.57;8.27;;;22.60;99.90;;;;;;4991865;28;20217;-78
2023/05/04 08:54:35;;;;;;;8.33;7.53;;;22.50;99.90;;;;;;4985978;28;20681;-77
2023/05/04 08:57:04;;;;;;;9.23;8.37;;;22.60;99.90;;;;;;4991848;28;20226;-77
2023/05/04 08:59:32;;;;;;;11.37;8.13;;;22.70;99.90;;;;;;4975009;28;20256;-77
2023/05/04 09:02:00;;;;;;;8.40;7.50;;;22.40;99.90;;;;;;4974622;28;20287;-77
2023/05/04 09:04:28;;;;;;;9.90;8.73;;;22.80;99.90;;;;;;4977053;28;20201;-77
2023/05/04 09:06:55;;;;;;;11.00;9.90;;;22.90;99.90;;;;;;4974734;28;20194;-78
2023/05/04 09:09:25;;;;;;;8.03;7.30;;;23.30;99.90;;;;;;4975624;28;20213;-78
2023/05/04 09:11:52;;;;;;;9.63;8.67;;;23.30;99.90;;;;;;4975136;28;20769;-78
2023/05/04 09:14:19;;;;;;;8.83;8.03;;;23.30;99.90;;;;;;4977222;28;20213;-78
2023/05/04 09:16:46;;;;;;;11.47;8.20;;;23.30;99.90;;;;;;4994862;28;20633;-78
2023/05/04 09:19:20;;;;;;;7.57;6.83;;;23.30;99.90;;;;;;4989142;28;20575;-78
2023/05/04 09:21:50;;;;;;;6.87;6.27;;;23.50;99.90;;;;;;4994887;28;20217;-78
2023/05/04 09:24:26;;;;;;;6.77;6.17;;;23.80;99.90;;;;;;4994769;28;20688;-78
2023/05/04 09:26:53;;;;;;;8.67;8.07;;;24.00;99.90;;;;;;4988216;28;20197;-78
2023/05/04 09:29:21;;;;;;;7.50;7.00;;;24.10;99.90;;;;;;4980672;28;20633;-78
2023/05/04 09:31:49;;;;;;;7.20;6.57;;;24.20;99.80;;;;;;4994592;28;20237;-78
2023/05/04 09:34:17;;;;;;;7.87;7.27;;;24.30;99.20;;;;;;4997986;28;20207;-77
2023/05/04 09:36:44;;;;;;;20.63;7.50;;;24.50;98.30;;;;;;4995821;28;20752;-80
2023/05/04 09:39:13;;;;;;;5.90;5.50;;;24.80;97.50;;;;;;4997877;28;20232;-82
2023/05/04 09:41:40;;;;;;;4.73;4.33;;;24.40;96.10;;;;;;4996751;28;20729;-79
2023/05/04 09:44:18;;;;;;;3.90;3.50;;;24.70;96.60;;;;;;4994937;28;20198;-79
2023/05/04 09:46:53;;;;;;;3.60;3.30;;;24.40;94.00;;;;;;4995809;28;20281;-78
2023/05/04 09:49:30;;;;;;;4.20;3.77;;;24.10;94.70;;;;;;4978916;28;20268;-81
2023/05/04 09:52:00;;;;;;;3.93;3.63;;;24.00;94.50;;;;;;4987907;28;20705;-78
2023/05/04 09:54:31;;;;;;;3.53;3.23;;;24.10;94.50;;;;;;4985121;28;20202;-80
2023/05/04 09:57:05;;;;;;;3.93;3.63;;;24.30;95.20;;;;;;4997802;28;20221;-77
2023/05/04 09:59:32;;;;;;;4.00;3.70;;;24.60;95.00;;;;;;4979827;28;20208;-76
2023/05/04 10:01:59;;;;;;;4.63;3.33;;;24.90;94.40;;;;;;4996968;28;20667;-76
2023/05/04 10:04:26;;;;;;;3.60;3.30;;;24.70;93.80;;;;;;4981841;28;20237;-76
2023/05/04 10:06:54;;;;;;;3.57;3.27;;;24.60;93.70;;;;;;5000198;28;20194;-78
2023/05/04 10:09:21;;;;;;;3.10;2.90;;;24.80;93.30;;;;;;4999186;28;20264;-78
2023/05/04 10:11:50;;;;;;;5.57;4.97;;;24.80;90.50;;;;;;4998369;28;20217;-78
2023/05/04 10:14:17;;;;;;;4.23;3.93;;;24.80;95.10;;;;;;4995137;28;20224;-79
2023/05/04 10:16:51;;;;;;;4.63;4.23;;;24.90;94.20;;;;;;4978591;28;20221;-79
2023/05/04 10:19:31;;;;;;;4.20;3.80;;;24.90;91.90;;;;;;4995425;28;20194;-78
2023/05/04 10:22:10;;;;;;;4.30;3.90;;;24.60;92.50;;;;;;4978212;28;20244;-79
2023/05/04 10:24:59;;;;;;;4.50;4.00;;;24.80;91.70;;;;;;4986499;28;20209;-77
2023/05/04 10:27:43;;;;;;;4.37;4.07;;;24.60;92.50;;;;;;4993898;28;20193;-80
2023/05/04 10:30:12;;;;;;;4.50;4.10;;;24.70;92.30;;;;;;4975944;28;20228;-80
2023/05/04 10:32:40;;;;;;;4.00;3.67;;;24.60;92.10;;;;;;4996140;28;20202;-80
2023/05/04 10:35:08;;;;;;;3.90;3.60;;;24.40;90.60;;;;;;4998961;28;20752;-78
2023/05/04 10:37:36;;;;;;;3.37;3.17;;;24.20;90.40;;;;;;4978278;28;20213;-79
2023/05/04 10:40:06;;;;;;;3.10;2.90;;;24.20;93.10;;;;;;4994873;28;20599;-78
2023/05/04 10:42:42;;;;;;;3.67;3.27;;;24.10;91.00;;;;;;4994398;28;20753;-80
2023/05/04 10:45:11;;;;;;;4.17;3.87;;;24.10;91.50;;;;;;4999212;28;20312;-79
2023/05/04 10:47:39;;;;;;;6.20;5.70;;;24.00;91.50;;;;;;4978682;28;20658;-78
2023/05/04 10:50:08;;;;;;;6.90;6.50;;;24.10;92.20;;;;;;4995912;28;20217;-80
2023/05/04 10:52:46;;;;;;;4.53;4.23;;;24.10;91.50;;;;;;4997840;28;20197;-80
2023/05/04 10:55:14;;;;;;;4.27;3.97;;;24.10;92.60;;;;;;4997947;28;20231;-80
2023/05/04 10:57:50;;;;;;;4.80;4.43;;;23.80;91.40;;;;;;4998217;28;20216;-81
2023/05/04 11:00:18;;;;;;;4.47;4.07;;;23.60;92.30;;;;;;4979791;28;20240;-80
2023/05/04 11:02:46;;;;;;;4.10;3.80;;;23.60;93.40;;;;;;4995654;28;20207;-78
2023/05/04 11:05:17;;;;;;;6.53;6.03;;;23.70;92.90;;;;;;4976437;28;20258;-79
2023/05/04 11:07:44;;;;;;;4.17;3.87;;;23.40;92.20;;;;;;4977961;28;20212;-79
2023/05/04 11:10:22;;;;;;;5.57;4.13;;;23.40;92.80;;;;;;4978236;28;20345;-80
2023/05/04 11:12:50;;;;;;;4.40;4.10;;;23.40;92.50;;;;;;4995377;28;20212;-79
2023/05/04 11:15:17;;;;;;;3.80;3.10;;;23.40;92.90;;;;;;4977859;28;20208;-77
2023/05/04 11:17:48;;;;;;;3.00;2.80;;;23.70;93.50;;;;;;4976025;28;20604;-78
2023/05/04 11:20:22;;;;;;;3.70;3.40;;;23.60;92.30;;;;;;4994678;28;20225;-77
2023/05/04 11:22:49;;;;;;;3.90;3.70;;;23.60;93.30;;;;;;4976361;28;20261;-79
2023/05/04 11:25:17;;;;;;;5.03;3.73;;;23.80;93.20;;;;;;4976623;28;20205;-80
2023/05/04 11:27:44;;;;;;;3.83;3.40;;;23.90;92.70;;;;;;4994721;28;20201;-83
2023/05/04 11:30:13;;;;;;;5.07;4.00;;;23.90;93.00;;;;;;4994161;28;20319;-78
2023/05/04 11:32:41;;;;;;;5.03;4.10;;;23.40;91.90;;;;;;4976387;28;20202;-79
2023/05/04 11:35:14;;;;;;;4.93;4.17;;;23.40;93.40;;;;;;4975234;28;20212;-79
2023/05/04 11:37:42;;;;;;;4.57;4.10;;;23.40;92.90;;;;;;4993536;28;20221;-79
2023/05/04 11:40:13;;;;;;;4.20;3.77;;;23.20;92.80;;;;;;4976632;28;20226;-78
2023/05/04 11:42:40;;;;;;;3.83;3.50;;;23.10;93.70;;;;;;4994312;28;20719;-80
2023/05/04 11:45:10;;;;;;;7.50;6.90;;;23.10;93.20;;;;;;4994294;28;20713;-79
2023/05/04 11:47:39;;;;;;;8.40;7.80;;;23.20;94.40;;;;;;4995019;28;20201;-79
2023/05/04 11:50:09;;;;;;;8.33;7.83;;;23.40;94.00;;;;;;4980393;28;20647;-79
2023/05/04 11:52:39;;;;;;;7.90;7.30;;;23.50;93.30;;;;;;4993891;28;20205;-79
2023/05/04 11:55:08;;;;;;;7.50;7.00;;;23.60;93.00;;;;;;4994148;28;20628;-79
2023/05/04 11:57:36;;;;;;;7.57;6.97;;;23.70;92.10;;;;;;4994659;28;20228;-79
2023/05/04 12:00:05;;;;;;;6.97;6.47;;;23.90;92.20;;;;;;4975189;28;20205;-80
2023/05/04 12:02:32;;;;;;;7.10;6.40;;;24.00;91.40;;;;;;4993680;28;20197;-76
2023/05/04 12:05:00;;;;;;;7.03;6.43;;;23.70;92.20;;;;;;4993188;28;20204;-79
2023/05/04 12:07:28;;;;;;;7.13;6.40;;;23.60;90.90;;;;;;4977191;28;20197;-79
2023/05/04 12:09:54;;;;;;;7.27;6.77;;;23.50;92.50;;;;;;4989720;28;20197;-80
2023/05/04 12:12:21;;;;;;;7.00;6.50;;;23.50;90.90;;;;;;4995301;28;20194;-79
2023/05/04 12:14:50;;;;;;;7.00;6.47;;;23.30;90.90;;;;;;4995434;28;20205;-81
2023/05/04 12:17:16;;;;;;;6.90;6.40;;;23.40;92.40;;;;;;4977576;28;20250;-79
2023/05/04 12:19:50;;;;;;;6.40;5.90;;;23.20;90.50;;;;;;4977479;28;20209;-80
2023/05/04 12:22:27;;;;;;;7.67;7.07;;;23.20;90.80;;;;;;4994351;28;20608;-78
2023/05/04 12:24:54;;;;;;;3.30;3.00;;;23.10;89.80;;;;;;4982428;28;20201;-79
2023/05/04 12:27:21;;;;;;;3.03;2.80;;;23.10;91.50;;;;;;4974789;28;20563;-78
2023/05/04 12:29:48;;;;;;;3.57;3.27;;;23.10;90.50;;;;;;4974890;28;20232;-81
2023/05/04 12:32:14;;;;;;;3.77;3.37;;;23.10;88.90;;;;;;4981496;28;20756;-77
2023/05/04 12:34:41;;;;;;;3.10;2.80;;;22.80;87.10;;;;;;4981004;28;20517;-80
2023/05/04 12:37:08;;;;;;;3.67;3.37;;;22.80;89.60;;;;;;4990860;28;20237;-81
2023/05/04 12:39:36;;;;;;;5.00;4.70;;;22.70;92.70;;;;;;4993610;28;20284;-82
2023/05/04 12:42:04;;;;;;;4.93;4.60;;;22.70;92.70;;;;;;4991391;28;20443;-83
2023/05/04 12:44:31;;;;;;;3.43;3.13;;;22.70;93.80;;;;;;4986433;28;20698;-82